createdAt,value
2018-07-08T00:01:35.922Z,101290.81
2018-07-08T00:04:04.770Z,101296.87
2018-07-08T00:06:35.081Z,101292.91
2018-07-08T00:09:04.262Z,101288.31
2018-07-08T00:11:32.899Z,101294.56
2018-07-08T00:14:01.880Z,101293.22
2018-07-08T00:16:31.297Z,101283.70
2018-07-08T00:19:00.665Z,101290.02
2018-07-08T00:21:30.625Z,101290.23
2018-07-08T00:23:59.638Z,101290.23
2018-07-08T00:26:28.765Z,101290.45
2018-07-08T00:28:57.140Z,101289.52
2018-07-08T00:31:25.528Z,101292.36
2018-07-08T00:33:54.952Z,101290.52
2018-07-08T00:36:23.328Z,101284.81
2018-07-08T00:38:51.670Z,101292.36
2018-07-08T00:41:20.054Z,101292.45
2018-07-08T00:43:49.304Z,101290.77
2018-07-08T00:46:17.662Z,101290.77
2018-07-08T00:48:46.021Z,101287.28
2018-07-08T00:51:14.375Z,101291.40
2018-07-08T00:53:42.737Z,101285.05
2018-07-08T00:56:12.254Z,101283.91
2018-07-08T00:58:40.626Z,101283.58
2018-07-08T01:01:08.994Z,101290.02
2018-07-08T01:03:37.341Z,101287.94
2018-07-08T01:06:07.282Z,101281.23
2018-07-08T01:08:35.861Z,101294.27
2018-07-08T01:11:04.692Z,101291.84
2018-07-08T01:13:34.030Z,101293.64
2018-07-08T01:16:04.003Z,101288.47
2018-07-08T01:18:33.915Z,101289.98
2018-07-08T01:21:02.289Z,101291.99
2018-07-08T01:23:31.521Z,101292.29
2018-07-08T01:26:09.765Z,101292.44
2018-07-08T01:28:38.481Z,101302.33
2018-07-08T01:31:07.416Z,101289.98
2018-07-08T01:33:36.853Z,101294.63
2018-07-08T01:36:06.450Z,101301.34
2018-07-08T01:38:36.181Z,101304.83
2018-07-08T01:41:05.805Z,101303.25
2018-07-08T01:43:36.520Z,101306.22
2018-07-08T01:46:06.219Z,101305.59
2018-07-08T01:48:36.353Z,101306.80
2018-07-08T01:51:06.682Z,101304.30
2018-07-08T01:53:37.087Z,101309.62
2018-07-08T01:56:06.909Z,101309.14
2018-07-08T01:58:37.566Z,101311.36
2018-07-08T02:01:07.229Z,101311.17
2018-07-08T02:03:38.105Z,101321.92
2018-07-08T02:06:07.054Z,101316.44
2018-07-08T02:08:38.009Z,101315.13
2018-07-08T02:11:06.482Z,101312.32
2018-07-08T02:13:37.221Z,101315.30
2018-07-08T02:16:08.333Z,101311.34
2018-07-08T02:18:37.646Z,101316.70
2018-07-08T02:21:06.953Z,101317.28
2018-07-08T02:23:36.313Z,101320.25
2018-07-08T02:26:05.677Z,101325.77
2018-07-08T02:28:35.225Z,101320.49
2018-07-08T02:31:05.104Z,101325.68
2018-07-08T02:33:35.153Z,101320.31
2018-07-08T02:36:04.279Z,101325.13
2018-07-08T02:38:34.419Z,101320.70
2018-07-08T02:41:02.778Z,101325.59
2018-07-08T02:43:31.153Z,101321.41
2018-07-08T02:46:01.086Z,101326.54
2018-07-08T02:48:29.862Z,101323.41
2018-07-08T02:50:58.880Z,101328.69
2018-07-08T02:53:29.230Z,101320.77
2018-07-08T02:55:57.568Z,101321.66
2018-07-08T02:58:26.977Z,101319.67
2018-07-08T03:00:55.317Z,101323.97
2018-07-08T03:03:24.693Z,101321.49
2018-07-08T03:05:53.778Z,101319.91
2018-07-08T03:08:23.163Z,101321.41
2018-07-08T03:10:52.534Z,101326.85
2018-07-08T03:13:21.783Z,101323.52
2018-07-08T03:15:51.077Z,101321.63
2018-07-08T03:18:20.498Z,101319.62
2018-07-08T03:20:48.973Z,101320.00
2018-07-08T03:23:17.322Z,101330.06
2018-07-08T03:25:45.701Z,101328.59
2018-07-08T03:28:14.065Z,101336.77
2018-07-08T03:30:42.446Z,101332.01
2018-07-08T03:33:10.793Z,101333.25
2018-07-08T03:35:39.129Z,101334.23
2018-07-08T03:38:07.505Z,101335.16
2018-07-08T03:40:35.852Z,101331.69
2018-07-08T03:43:05.094Z,101335.65
2018-07-08T03:45:34.890Z,101334.62
2018-07-08T03:48:04.432Z,101335.08
2018-07-08T03:50:32.774Z,101340.97
2018-07-08T03:53:01.157Z,101339.41
2018-07-08T03:55:29.910Z,101331.09
2018-07-08T03:57:58.359Z,101327.30
2018-07-08T04:00:26.753Z,101330.41
2018-07-08T04:02:55.097Z,101328.59
2018-07-08T04:05:23.433Z,101329.70
2018-07-08T04:07:52.726Z,101330.70
2018-07-08T04:10:21.081Z,101326.61
2018-07-08T04:12:49.425Z,101333.52
2018-07-08T04:15:17.778Z,101339.93
2018-07-08T04:17:47.153Z,101336.36
2018-07-08T04:20:15.498Z,101341.87
2018-07-08T04:22:44.774Z,101339.62
2018-07-08T04:25:13.153Z,101349.57
2018-07-08T04:27:41.514Z,101349.27
2018-07-08T04:30:09.870Z,101359.94
2018-07-08T04:32:38.216Z,101359.65
2018-07-08T04:35:06.565Z,101359.67
2018-07-08T04:37:35.961Z,101356.28
2018-07-08T04:40:05.305Z,101361.05
2018-07-08T04:42:34.265Z,101358.16
2018-07-08T04:45:03.272Z,101359.98
2018-07-08T04:47:31.638Z,101361.05
2018-07-08T04:50:00.030Z,101361.50
2018-07-08T04:52:28.433Z,101371.34
2018-07-08T04:54:56.799Z,101358.83
2018-07-08T04:57:25.149Z,101365.19
2018-07-08T04:59:54.425Z,101363.17
2018-07-08T05:02:22.989Z,101362.67
2018-07-08T05:04:51.343Z,101362.59
2018-07-08T05:07:19.705Z,101367.44
2018-07-08T05:09:48.039Z,101368.03
2018-07-08T05:12:16.391Z,101372.91
2018-07-08T05:14:45.873Z,101372.06
2018-07-08T05:17:15.129Z,101367.88
2018-07-08T05:19:44.413Z,101363.44
2018-07-08T05:22:13.639Z,101369.05
2018-07-08T05:24:42.874Z,101372.10
2018-07-08T05:27:12.089Z,101375.25
2018-07-08T05:29:41.285Z,101366.98
2018-07-08T05:32:09.665Z,101369.36
2018-07-08T05:34:38.837Z,101364.20
2018-07-08T05:37:08.294Z,101370.94
2018-07-08T05:39:37.633Z,101375.34
2018-07-08T05:42:07.261Z,101371.91
2018-07-08T05:44:37.625Z,101379.63
2018-07-08T05:47:07.101Z,101374.53
2018-07-08T05:49:36.485Z,101373.41
2018-07-08T05:52:07.706Z,101375.16
2018-07-08T05:54:36.076Z,101383.88
2018-07-08T05:57:06.202Z,101381.29
2018-07-08T05:59:36.557Z,101383.04
2018-07-08T06:02:05.492Z,101385.20
2018-07-08T06:04:34.284Z,101386.59
2018-07-08T06:07:02.720Z,101389.86
2018-07-08T06:09:32.066Z,101391.52
2018-07-08T06:12:01.200Z,101397.56
2018-07-08T06:14:30.039Z,101389.68
2018-07-08T06:16:59.017Z,101398.54
2018-07-08T06:19:27.362Z,101403.61
2018-07-08T06:21:55.708Z,101401.55
2018-07-08T06:24:24.038Z,101400.16
2018-07-08T06:26:52.717Z,101400.31
2018-07-08T06:29:21.051Z,101399.22
2018-07-08T06:31:49.461Z,101400.88
2018-07-08T06:34:17.831Z,101399.42
2018-07-08T06:36:46.185Z,101402.15
2018-07-08T06:39:14.621Z,101400.16
2018-07-08T06:41:42.932Z,101397.04
2018-07-08T06:44:11.287Z,101398.32
2018-07-08T06:46:46.173Z,101398.02
2018-07-08T06:49:14.605Z,101387.93
2018-07-08T06:51:42.983Z,101389.70
2018-07-08T06:54:12.355Z,101399.70
2018-07-08T06:56:40.715Z,101396.08
2018-07-08T06:59:12.146Z,101393.95
2018-07-08T07:01:40.501Z,101391.16
2018-07-08T07:04:08.890Z,101398.55
2018-07-08T07:06:37.245Z,101396.25
2018-07-08T07:09:08.304Z,101394.42
2018-07-08T07:11:50.720Z,101393.52
2018-07-08T07:14:19.572Z,101390.75
2018-07-08T07:16:48.057Z,101394.53
2018-07-08T07:19:16.593Z,101396.44
2018-07-08T07:21:44.954Z,101398.03
2018-07-08T07:24:13.327Z,101398.10
2018-07-08T07:26:41.976Z,101400.32
2018-07-08T07:29:10.329Z,101397.17
2018-07-08T07:31:38.700Z,101405.41
2018-07-08T07:34:07.075Z,101397.28
2018-07-08T07:36:36.560Z,101395.98
2018-07-08T07:39:08.016Z,101399.16
2018-07-08T07:41:37.312Z,101396.42
2018-07-08T07:44:07.772Z,101392.61
2018-07-08T07:46:37.065Z,101392.38
2018-07-08T07:49:06.281Z,101393.34
2018-07-08T07:51:37.231Z,101388.20
2018-07-08T07:54:07.468Z,101384.76
2018-07-08T07:56:35.857Z,101388.08
2018-07-08T07:59:04.829Z,101392.98
2018-07-08T08:01:35.085Z,101388.27
2018-07-08T08:04:05.904Z,101397.13
2018-07-08T08:06:35.190Z,101388.48
2018-07-08T08:09:06.001Z,101389.42
2018-07-08T08:11:36.786Z,101388.92
2018-07-08T08:14:06.813Z,101396.52
2018-07-08T08:16:35.987Z,101397.55
2018-07-08T08:19:06.377Z,101401.55
2018-07-08T08:21:37.089Z,101411.78
2018-07-08T08:24:06.130Z,101414.66
2018-07-08T08:26:35.054Z,101419.86
2018-07-08T08:29:05.424Z,101411.94
2018-07-08T08:31:35.862Z,101417.23
2018-07-08T08:35:15.249Z,101418.09
2018-07-08T08:37:47.880Z,101423.05
2018-07-08T08:40:17.081Z,101420.45
2018-07-08T08:42:45.450Z,101421.02
2018-07-08T08:45:14.917Z,101425.50
2018-07-08T08:47:43.378Z,101429.44
2018-07-08T08:50:13.449Z,101429.27
2018-07-08T08:52:42.862Z,101423.09
2018-07-08T08:55:12.742Z,101430.83
2018-07-08T08:57:41.101Z,101430.81
2018-07-08T09:00:13.886Z,101428.25
2018-07-08T09:02:42.279Z,101422.63
2018-07-08T09:05:10.685Z,101420.83
2018-07-08T09:07:39.134Z,101416.19
2018-07-08T09:10:07.669Z,101410.01
2018-07-08T09:12:36.042Z,101407.09
2018-07-08T09:15:05.529Z,101417.78
2018-07-08T09:17:33.927Z,101407.09
2018-07-08T09:20:02.289Z,101414.13
2018-07-08T09:22:31.653Z,101410.80
2018-07-08T09:25:01.254Z,101412.28
2018-07-08T09:27:30.160Z,101412.86
2018-07-08T09:29:59.174Z,101411.87
2018-07-08T09:32:27.525Z,101406.34
2018-07-08T09:34:56.875Z,101404.50
2018-07-08T09:37:25.241Z,101412.13
2018-07-08T09:39:53.582Z,101418.45
2018-07-08T09:42:21.925Z,101409.17
2018-07-08T09:44:50.270Z,101405.02
2018-07-08T09:47:18.619Z,101405.80
2018-07-08T09:49:46.965Z,101408.49
2018-07-08T09:52:15.303Z,101414.14
2018-07-08T09:54:43.654Z,101409.44
2018-07-08T09:57:11.994Z,101402.80
2018-07-08T09:59:41.329Z,101412.00
2018-07-08T10:02:10.584Z,101400.73
2018-07-08T10:04:39.878Z,101398.80
2018-07-08T10:07:09.030Z,101406.23
2018-07-08T10:09:37.365Z,101408.23
2018-07-08T10:12:07.428Z,101405.67
2018-07-08T10:14:36.921Z,101401.28
2018-07-08T10:17:06.298Z,101402.31
2018-07-08T10:19:37.310Z,101397.66
2018-07-08T10:22:07.576Z,101393.16
2018-07-08T10:24:36.809Z,101393.70
2018-07-08T10:27:19.423Z,101394.50
2018-07-08T10:29:48.645Z,101397.81
2018-07-08T10:32:18.007Z,101401.27
2018-07-08T10:34:47.304Z,101391.88
2018-07-08T10:37:16.660Z,101399.60
2018-07-08T10:39:45.002Z,101397.62
2018-07-08T10:42:14.274Z,101402.46
2018-07-08T10:44:42.690Z,101398.61
2018-07-08T10:47:11.033Z,101404.39
2018-07-08T10:49:39.441Z,101393.95
2018-07-08T10:52:08.036Z,101406.47
2018-07-08T10:54:36.409Z,101400.95
2018-07-08T10:57:07.198Z,101403.63
2018-07-08T10:59:36.947Z,101398.17
2018-07-08T11:02:06.341Z,101400.64
2018-07-08T11:04:36.099Z,101402.40
2018-07-08T11:07:05.376Z,101404.18
2018-07-08T11:09:34.254Z,101402.92
2018-07-08T11:12:03.451Z,101398.47
2018-07-08T11:14:31.791Z,101395.52
2018-07-08T11:17:01.101Z,101406.86
2018-07-08T11:19:30.222Z,101410.73
2018-07-08T11:21:59.213Z,101402.52
2018-07-08T11:24:27.570Z,101402.13
2018-07-08T11:26:56.909Z,101402.06
2018-07-08T11:29:25.270Z,101395.58
2018-07-08T11:31:53.636Z,101399.33
2018-07-08T11:34:22.014Z,101397.73
2018-07-08T11:36:50.347Z,101398.58
2018-07-08T11:39:18.722Z,101392.22
2018-07-08T11:41:47.061Z,101390.65
2018-07-08T11:44:15.406Z,101388.30
2018-07-08T11:46:43.937Z,101394.30
2018-07-08T11:49:12.277Z,101389.33
2018-07-08T11:51:40.622Z,101393.34
2018-07-08T11:54:08.967Z,101403.45
2018-07-08T11:56:37.305Z,101404.52
2018-07-08T11:59:07.116Z,101403.23
2018-07-08T12:01:35.973Z,101399.50
2018-07-08T12:04:05.544Z,101397.71
2018-07-08T12:06:33.907Z,101398.05
2018-07-08T12:09:02.301Z,101405.32
2018-07-08T12:11:31.275Z,101401.00
2018-07-08T12:13:59.713Z,101403.03
2018-07-08T12:16:28.105Z,101401.49
2018-07-08T12:18:56.430Z,101395.94
2018-07-08T12:21:24.838Z,101399.74
2018-07-08T12:23:53.169Z,101399.16
2018-07-08T12:26:21.502Z,101403.55
2018-07-08T12:28:50.290Z,101401.72
2018-07-08T12:31:19.517Z,101409.84
2018-07-08T12:33:47.955Z,101401.18
2018-07-08T12:36:17.298Z,101403.79
2018-07-08T12:38:45.628Z,101407.39
2018-07-08T12:41:13.968Z,101403.14
2018-07-08T12:43:42.332Z,101402.13
2018-07-08T12:46:11.893Z,101405.77
2018-07-08T12:48:41.285Z,101404.22
2018-07-08T12:51:09.605Z,101397.02
2018-07-08T12:53:37.948Z,101406.41
2018-07-08T12:56:06.286Z,101399.19
2018-07-08T12:58:35.859Z,101398.30
2018-07-08T13:01:05.731Z,101406.41
2018-07-08T13:03:35.016Z,101400.46
2018-07-08T13:06:05.324Z,101402.68
2018-07-08T13:08:34.249Z,101401.00
2018-07-08T13:11:03.389Z,101396.33
2018-07-08T13:13:33.233Z,101396.23
2018-07-08T13:16:03.133Z,101394.88
2018-07-08T13:18:32.342Z,101384.77
2018-07-08T13:21:01.729Z,101386.22
2018-07-08T13:23:31.129Z,101383.77
2018-07-08T13:26:01.078Z,101386.16
2018-07-08T13:28:30.301Z,101386.83
2018-07-08T13:31:00.153Z,101381.56
2018-07-08T13:33:29.425Z,101374.35
2018-07-08T13:35:57.894Z,101373.95
2018-07-08T13:38:27.134Z,101377.98
2018-07-08T13:40:55.666Z,101376.63
2018-07-08T13:43:24.003Z,101381.59
2018-07-08T13:45:52.365Z,101379.61
2018-07-08T13:48:20.677Z,101373.66
2018-07-08T13:50:49.072Z,101372.70
2018-07-08T13:53:18.369Z,101361.84
2018-07-08T13:55:48.411Z,101367.56
2018-07-08T13:58:17.640Z,101359.46
2018-07-08T14:00:47.006Z,101356.05
2018-07-08T14:03:16.389Z,101354.91
2018-07-08T14:05:44.809Z,101356.95
2018-07-08T14:08:14.239Z,101356.47
2018-07-08T14:10:42.801Z,101352.81
2018-07-08T14:13:12.176Z,101349.69
2018-07-08T14:15:41.492Z,101352.98
2018-07-08T14:18:10.907Z,101354.52
2018-07-08T14:20:40.411Z,101351.36
2018-07-08T14:23:08.689Z,101348.34
2018-07-08T14:25:38.052Z,101345.64
2018-07-08T14:28:07.281Z,101346.42
2018-07-08T14:30:37.927Z,101344.81
2018-07-08T14:33:06.375Z,101341.13
2018-07-08T14:35:35.873Z,101337.92
2018-07-08T14:38:04.753Z,101333.44
2018-07-08T14:40:34.199Z,101335.93
2018-07-08T14:43:04.496Z,101338.14
2018-07-08T14:45:34.327Z,101330.55
2018-07-08T14:48:05.098Z,101329.83
2018-07-08T14:50:34.131Z,101327.48
2018-07-08T14:53:04.869Z,101326.94
2018-07-08T14:55:35.252Z,101320.30
2018-07-08T14:58:05.505Z,101317.70
2018-07-08T15:00:35.673Z,101315.81
2018-07-08T15:03:06.398Z,101309.70
2018-07-08T15:05:37.078Z,101306.08
2018-07-08T15:08:05.760Z,101308.20
2018-07-08T15:10:35.028Z,101311.08
2018-07-08T15:13:04.715Z,101312.16
2018-07-08T15:15:34.411Z,101314.37
2018-07-08T15:18:03.159Z,101316.23
2018-07-08T15:20:31.607Z,101308.88
2018-07-08T15:23:00.348Z,101300.55
2018-07-08T15:25:29.273Z,101299.60
2018-07-08T15:27:57.612Z,101291.04
2018-07-08T15:30:25.941Z,101294.70
2018-07-08T15:32:54.268Z,101299.09
2018-07-08T15:35:22.712Z,101292.56
2018-07-08T15:37:51.041Z,101293.72
2018-07-08T15:40:19.365Z,101285.42
2018-07-08T15:42:47.705Z,101282.11
2018-07-08T15:45:16.037Z,101284.65
2018-07-08T15:47:44.758Z,101283.46
2018-07-08T15:50:13.147Z,101286.73
2018-07-08T15:52:42.822Z,101276.88
2018-07-08T15:55:11.144Z,101271.17
2018-07-08T15:57:40.588Z,101271.68
2018-07-08T16:00:08.909Z,101271.96
2018-07-08T16:02:37.253Z,101272.33
2018-07-08T16:05:06.574Z,101275.88
2018-07-08T16:07:36.928Z,101275.56
2018-07-08T16:10:06.995Z,101280.09
2018-07-08T16:12:36.014Z,101278.56
2018-07-08T16:15:05.299Z,101283.00
2018-07-08T16:17:35.002Z,101279.58
2018-07-08T16:20:04.801Z,101281.28
2018-07-08T16:22:33.801Z,101279.73
2018-07-08T16:25:02.146Z,101289.41
2018-07-08T16:27:31.973Z,101291.86
2018-07-08T16:30:02.192Z,101289.26
2018-07-08T16:32:31.564Z,101290.63
2018-07-08T16:35:01.660Z,101297.03
2018-07-08T16:37:30.125Z,101291.92
2018-07-08T16:39:59.362Z,101287.34
2018-07-08T16:42:27.749Z,101282.89
2018-07-08T16:44:56.101Z,101277.72
2018-07-08T16:47:24.417Z,101278.55
2018-07-08T16:49:53.773Z,101273.13
2018-07-08T16:52:23.089Z,101275.54
2018-07-08T16:54:52.653Z,101273.97
2018-07-08T16:57:21.044Z,101272.03
2018-07-08T16:59:49.390Z,101276.64
2018-07-08T17:02:17.964Z,101280.03
2018-07-08T17:04:47.267Z,101273.41
2018-07-08T17:07:16.549Z,101274.27
2018-07-08T17:09:45.844Z,101272.56
2018-07-08T17:12:14.198Z,101272.56
2018-07-08T17:14:42.548Z,101271.75
2018-07-08T17:17:10.893Z,101272.37
2018-07-08T17:19:39.333Z,101271.06
2018-07-08T17:22:07.670Z,101272.59
2018-07-08T17:24:36.020Z,101268.78
2018-07-08T17:27:05.361Z,101271.11
2018-07-08T17:29:34.313Z,101261.77
2018-07-08T17:32:02.804Z,101263.59
2018-07-08T17:34:31.837Z,101264.73
2018-07-08T17:37:01.230Z,101260.64
2018-07-08T17:39:30.529Z,101257.53
2018-07-08T17:42:00.258Z,101251.51
2018-07-08T17:44:29.436Z,101259.81
2018-07-08T18:07:06.672Z,101265.58
2018-07-08T18:26:50.316Z,101256.97
2018-07-08T18:29:18.677Z,101257.34
2018-07-08T18:31:47.009Z,101262.34
2018-07-08T18:34:15.366Z,101260.66
2018-07-08T18:36:45.098Z,101262.15
2018-07-08T18:39:13.425Z,101256.02
2018-07-08T18:58:59.439Z,101271.38
2018-07-08T19:01:27.777Z,101265.20
2018-07-08T19:03:56.113Z,101269.86
2018-07-08T19:06:24.470Z,101274.47
2018-07-08T19:08:52.825Z,101270.66
2018-07-08T19:11:21.203Z,101273.28
2018-07-08T19:13:49.605Z,101273.58
2018-07-08T19:16:18.174Z,101273.13
2018-07-08T19:36:03.954Z,101296.10
2018-07-08T19:38:32.309Z,101293.28
2018-07-08T19:58:17.733Z,101308.66
2018-07-08T20:00:46.074Z,101310.69
2018-07-08T20:03:15.308Z,101318.84
2018-07-08T20:05:43.737Z,101317.33
2018-07-08T20:08:12.069Z,101309.02
2018-07-08T20:10:40.389Z,101315.33
2018-07-08T20:13:08.726Z,101311.48
2018-07-08T20:15:37.060Z,101319.30
2018-07-08T20:35:21.075Z,101327.92
2018-07-08T20:37:49.409Z,101329.56
2018-07-08T20:57:34.311Z,101327.17
2018-07-08T21:17:19.151Z,101329.13
2018-07-08T21:19:48.281Z,101334.44
2018-07-08T21:22:16.682Z,101332.75
2018-07-08T21:24:45.479Z,101334.38
2018-07-08T21:27:14.443Z,101325.91
2018-07-08T21:29:42.862Z,101334.98
2018-07-08T21:32:11.223Z,101336.66
2018-07-08T21:51:55.338Z,101342.57
2018-07-08T22:11:40.212Z,101339.01
2018-07-08T22:14:08.536Z,101338.81
2018-07-08T22:16:36.894Z,101338.98
2018-07-08T22:19:06.608Z,101335.59
2018-07-08T22:21:35.734Z,101342.36
2018-07-08T22:24:05.245Z,101333.17
2018-07-08T22:26:35.518Z,101337.12
2018-07-08T22:29:05.395Z,101337.80
2018-07-08T22:31:34.185Z,101338.26
2018-07-08T22:34:04.350Z,101335.59
2018-07-08T22:36:33.870Z,101338.60
2018-07-08T22:39:02.269Z,101337.80
2018-07-08T22:41:30.640Z,101337.88
2018-07-08T22:43:59.689Z,101326.36
2018-07-08T22:46:28.316Z,101329.43
2018-07-08T22:48:56.706Z,101334.11
2018-07-08T22:51:25.045Z,101333.88
2018-07-08T22:53:53.886Z,101330.88
2018-07-08T22:56:22.231Z,101330.34
2018-07-08T22:58:50.798Z,101333.36
2018-07-08T23:01:31.549Z,101331.28
2018-07-08T23:04:01.028Z,101328.59
2018-07-08T23:06:29.974Z,101321.48
2018-07-08T23:08:59.535Z,101323.21
2018-07-08T23:11:29.669Z,101318.04
2018-07-08T23:13:58.641Z,101319.81
2018-07-08T23:16:28.282Z,101324.58
2018-07-08T23:18:56.619Z,101323.77
2018-07-08T23:21:24.977Z,101320.61
2018-07-08T23:23:53.316Z,101325.55
2018-07-08T23:26:22.555Z,101325.55
2018-07-08T23:28:51.112Z,101325.66
2018-07-08T23:31:19.458Z,101326.53
2018-07-08T23:33:47.792Z,101331.39
2018-07-08T23:36:16.998Z,101325.92
2018-07-08T23:38:46.364Z,101327.77
2018-07-08T23:41:14.748Z,101328.81
2018-07-08T23:43:43.086Z,101325.65
2018-07-08T23:46:12.357Z,101329.85
2018-07-08T23:48:40.695Z,101327.13
2018-07-08T23:51:09.031Z,101332.59
2018-07-08T23:53:37.400Z,101330.91
2018-07-08T23:56:06.249Z,101323.33
2018-07-08T23:58:35.235Z,101324.71
